createdAt,value
2018-01-23T00:00:44.714Z,2.70
2018-01-23T00:03:18.871Z,2.60
2018-01-23T00:05:48.752Z,3.37
2018-01-23T00:08:20.129Z,2.60
2018-01-23T00:10:51.437Z,2.50
2018-01-23T00:13:19.786Z,2.70
2018-01-23T00:15:57.034Z,2.83
2018-01-23T00:18:25.316Z,3.03
2018-01-23T00:20:55.678Z,2.63
2018-01-23T00:23:25.335Z,2.60
2018-01-23T00:25:56.558Z,2.40
2018-01-23T00:28:26.548Z,2.77
2018-01-23T00:31:12.077Z,3.27
2018-01-23T00:33:44.049Z,2.80
2018-01-23T00:36:15.780Z,2.67
2018-01-23T00:38:48.430Z,2.70
2018-01-23T00:41:22.292Z,2.47
2018-01-23T00:43:53.268Z,2.50
2018-01-23T00:46:22.299Z,2.53
2018-01-23T00:48:50.785Z,2.80
2018-01-23T00:51:21.092Z,2.60
2018-01-23T00:53:52.161Z,2.77
2018-01-23T00:56:26.459Z,2.50
2018-01-23T00:58:58.496Z,2.40
2018-01-23T01:01:26.820Z,2.60
2018-01-23T01:03:57.796Z,2.70
2018-01-23T01:06:29.674Z,2.77
2018-01-23T01:08:59.184Z,2.13
2018-01-23T01:11:27.534Z,2.30
2018-01-23T01:13:58.515Z,2.43
2018-01-23T01:19:14.935Z,2.33
2018-01-23T01:21:44.250Z,2.57
2018-01-23T01:24:18.379Z,2.93
2018-01-23T01:26:48.462Z,2.57
2018-01-23T01:29:17.089Z,2.40
2018-01-23T01:31:46.443Z,2.20
2018-01-23T01:34:16.891Z,2.53
2018-01-23T01:36:47.326Z,2.07
2018-01-23T01:39:18.827Z,2.27
2018-01-23T01:41:48.350Z,2.47
2018-01-23T01:44:19.877Z,2.30
2018-01-23T01:46:48.859Z,2.83
2018-01-23T01:49:17.487Z,2.07
2018-01-23T01:51:46.676Z,2.20
2018-01-23T01:54:15.387Z,2.00
2018-01-23T01:56:48.971Z,1.93
2018-01-23T01:59:18.718Z,2.30
2018-01-23T02:01:48.567Z,2.10
2018-01-23T02:04:17.184Z,2.63
2018-01-23T02:06:45.909Z,2.30
2018-01-23T02:09:15.467Z,2.50
2018-01-23T02:11:49.105Z,2.77
2018-01-23T02:14:21.883Z,2.93
2018-01-23T02:16:52.628Z,2.30
2018-01-23T02:19:23.150Z,2.53
2018-01-23T02:21:52.443Z,2.27
2018-01-23T02:24:22.792Z,2.27
2018-01-23T02:26:52.712Z,2.60
2018-01-23T02:29:21.349Z,2.30
2018-01-23T02:31:52.449Z,2.30
2018-01-23T02:34:23.240Z,2.70
2018-01-23T02:36:52.990Z,2.17
2018-01-23T02:39:22.892Z,2.00
2018-01-23T02:41:51.528Z,2.47
2018-01-23T02:44:20.747Z,2.57
2018-01-23T02:46:53.667Z,2.20
2018-01-23T02:49:28.300Z,2.67
2018-01-23T02:51:58.998Z,2.33
2018-01-23T02:54:27.772Z,2.60
2018-01-23T02:56:56.054Z,2.40
2018-01-23T02:59:24.527Z,3.50
2018-01-23T03:01:53.132Z,2.20
2018-01-23T03:04:25.788Z,3.90
2018-01-23T03:06:58.480Z,3.63
2018-01-23T03:09:28.757Z,2.93
2018-01-23T03:11:57.058Z,2.80
2018-01-23T03:14:25.757Z,2.43
2018-01-23T03:16:54.405Z,2.80
2018-01-23T03:19:24.655Z,2.27
2018-01-23T03:21:57.506Z,2.47
2018-01-23T03:24:25.938Z,3.20
2018-01-23T03:26:55.910Z,2.27
2018-01-23T03:29:24.720Z,2.10
2018-01-23T03:31:53.010Z,2.50
2018-01-23T03:34:24.009Z,2.60
2018-01-23T03:36:54.947Z,2.50
2018-01-23T03:39:23.561Z,2.67
2018-01-23T03:41:53.497Z,2.33
2018-01-23T03:44:22.210Z,3.10
2018-01-23T03:46:51.113Z,2.10
2018-01-23T03:49:23.263Z,2.70
2018-01-23T03:51:53.046Z,2.07
2018-01-23T03:54:24.162Z,2.17
2018-01-23T03:56:53.906Z,2.07
2018-01-23T03:59:22.243Z,2.27
2018-01-23T04:01:50.569Z,2.00
2018-01-23T04:04:24.256Z,2.03
2018-01-23T04:06:54.370Z,2.00
2018-01-23T04:09:28.124Z,2.33
2018-01-23T04:11:56.457Z,2.50
2018-01-23T04:14:25.568Z,2.07
2018-01-23T04:16:53.846Z,2.43
2018-01-23T04:19:23.084Z,1.93
2018-01-23T04:21:53.472Z,2.30
2018-01-23T04:24:23.144Z,2.47
2018-01-23T04:26:51.868Z,2.67
2018-01-23T04:29:20.182Z,2.00
2018-01-23T04:31:51.040Z,2.27
2018-01-23T04:34:19.351Z,1.83
2018-01-23T04:36:51.213Z,2.43
2018-01-23T04:39:23.369Z,2.60
2018-01-23T04:42:00.566Z,2.77
2018-01-23T04:44:32.358Z,2.40
2018-01-23T04:47:03.937Z,2.57
2018-01-23T04:49:34.020Z,2.37
2018-01-23T04:52:02.400Z,2.60
2018-01-23T04:54:31.680Z,3.40
2018-01-23T04:57:02.816Z,2.73
2018-01-23T04:59:34.982Z,2.63
2018-01-23T05:02:05.545Z,2.53
2018-01-23T05:04:34.493Z,2.40
2018-01-23T05:07:02.777Z,2.37
2018-01-23T05:09:31.578Z,2.50
2018-01-23T05:12:00.141Z,2.97
2018-01-23T05:14:29.723Z,2.70
2018-01-23T05:16:58.700Z,2.87
2018-01-23T05:20:04.163Z,2.73
2018-01-23T05:22:35.770Z,2.07
2018-01-23T05:25:04.762Z,3.27
2018-01-23T05:27:34.033Z,4.03
2018-01-23T05:30:05.104Z,3.83
2018-01-23T05:32:35.602Z,2.50
2018-01-23T05:35:08.093Z,2.50
2018-01-23T05:37:36.470Z,3.23
2018-01-23T05:40:05.016Z,2.80
2018-01-23T05:42:33.299Z,2.73
2018-01-23T05:45:02.730Z,3.13
2018-01-23T05:47:33.066Z,3.10
2018-01-23T05:50:23.869Z,3.17
2018-01-23T05:52:52.231Z,3.00
2018-01-23T05:55:20.742Z,3.10
2018-01-23T05:57:51.552Z,3.40
2018-01-23T06:00:25.271Z,3.47
2018-01-23T06:02:54.500Z,3.20
2018-01-23T06:06:05.956Z,3.53
2018-01-23T06:08:37.005Z,3.43
2018-01-23T06:11:08.477Z,3.77
2018-01-23T06:13:37.255Z,3.60
2018-01-23T06:16:06.612Z,3.53
2018-01-23T06:18:36.048Z,3.17
2018-01-23T06:21:06.820Z,3.87
2018-01-23T06:23:42.620Z,3.53
2018-01-23T06:26:13.924Z,3.43
2018-01-23T06:28:47.431Z,4.20
2018-01-23T06:31:18.436Z,3.80
2018-01-23T06:33:46.714Z,4.33
2018-01-23T06:36:17.418Z,4.60
2018-01-23T06:38:46.436Z,4.70
2018-01-23T06:41:16.138Z,4.13
2018-01-23T06:43:46.177Z,4.27
2018-01-23T06:46:16.196Z,4.30
2018-01-23T06:48:45.021Z,4.77
2018-01-23T06:51:14.884Z,4.80
2018-01-23T06:53:43.172Z,4.87
2018-01-23T06:56:11.456Z,4.40
2018-01-23T06:58:40.535Z,4.63
2018-01-23T07:01:08.871Z,5.43
2018-01-23T07:03:37.286Z,4.90
2018-01-23T07:06:20.881Z,5.27
2018-01-23T07:08:49.695Z,4.47
2018-01-23T07:11:18.904Z,4.60
2018-01-23T07:13:48.343Z,5.77
2018-01-23T07:16:18.267Z,5.40
2018-01-23T07:18:49.271Z,4.90
2018-01-23T07:21:32.993Z,5.57
2018-01-23T07:24:02.677Z,4.80
2018-01-23T07:26:31.303Z,4.87
2018-01-23T07:28:59.883Z,5.77
2018-01-23T07:31:31.499Z,5.87
2018-01-23T07:34:02.305Z,4.40
2018-01-23T07:36:40.926Z,4.50
2018-01-23T07:39:11.581Z,4.33
2018-01-23T07:41:40.097Z,3.73
2018-01-23T07:44:08.962Z,4.20
2018-01-23T07:46:38.225Z,3.60
2018-01-23T07:49:06.535Z,3.87
2018-01-23T07:51:50.397Z,3.23
2018-01-23T07:54:19.655Z,2.97
2018-01-23T07:56:48.228Z,3.20
2018-01-23T07:59:20.263Z,2.97
2018-01-23T08:01:49.387Z,2.80
2018-01-23T08:04:18.333Z,2.83
2018-01-23T08:07:07.777Z,2.60
2018-01-23T08:09:38.098Z,3.37
2018-01-23T08:12:07.140Z,3.00
2018-01-23T08:14:38.110Z,2.70
2018-01-23T08:17:06.446Z,2.80
2018-01-23T08:19:35.460Z,2.80
2018-01-23T08:22:04.321Z,2.63
2018-01-23T08:24:33.118Z,2.77
2018-01-23T08:27:01.454Z,2.63
2018-01-23T08:29:30.722Z,2.60
2018-01-23T08:32:00.504Z,2.73
2018-01-23T08:34:31.877Z,3.10
2018-01-23T08:37:02.600Z,3.10
2018-01-23T08:39:33.681Z,3.00
2018-01-23T08:42:03.440Z,3.00
2018-01-23T08:44:35.864Z,3.23
2018-01-23T08:47:04.972Z,3.43
2018-01-23T08:49:33.486Z,3.10
2018-01-23T08:52:02.197Z,3.50
2018-01-23T08:54:31.860Z,3.40
2018-01-23T08:57:02.206Z,3.70
2018-01-23T08:59:30.795Z,3.30
2018-01-23T09:02:00.584Z,3.67
2018-01-23T09:04:28.878Z,3.27
2018-01-23T09:06:58.462Z,3.10
2018-01-23T09:09:26.968Z,3.00
2018-01-23T09:11:56.136Z,3.47
2018-01-23T09:14:25.227Z,2.93
2018-01-23T09:16:53.532Z,3.00
2018-01-23T09:19:22.123Z,2.80
2018-01-23T09:21:52.008Z,2.23
2018-01-23T09:24:44.092Z,2.30
2018-01-23T09:27:12.890Z,2.00
2018-01-23T09:29:41.243Z,2.30
2018-01-23T09:32:11.285Z,2.17
2018-01-23T09:34:41.397Z,2.37
2018-01-23T09:37:13.298Z,1.87
2018-01-23T09:39:42.658Z,2.20
2018-01-23T09:42:11.006Z,2.33
2018-01-23T09:44:39.323Z,2.40
2018-01-23T09:47:08.677Z,2.30
2018-01-23T09:49:36.962Z,2.90
2018-01-23T09:52:05.855Z,2.97
2018-01-23T09:54:36.233Z,3.53
2018-01-23T09:57:04.881Z,3.20
2018-01-23T09:59:33.755Z,3.40
2018-01-23T10:02:02.788Z,4.27
2018-01-23T10:04:31.401Z,5.30
2018-01-23T10:07:00.715Z,5.47
2018-01-23T10:09:29.010Z,5.50
2018-01-23T10:11:57.291Z,6.20
2018-01-23T10:14:28.539Z,6.23
2018-01-23T10:16:57.855Z,5.87
2018-01-23T10:19:27.639Z,6.20
2018-01-23T10:21:55.957Z,6.43
2018-01-23T10:24:24.405Z,6.30
2018-01-23T10:26:55.253Z,6.47
2018-01-23T10:29:24.715Z,6.17
2018-01-23T10:31:53.903Z,6.60
2018-01-23T10:34:22.217Z,5.33
2018-01-23T10:36:50.676Z,5.77
2018-01-23T10:39:19.249Z,5.73
2018-01-23T10:41:52.603Z,5.77
2018-01-23T10:44:21.588Z,5.50
2018-01-23T10:46:50.837Z,4.80
2018-01-23T10:49:21.778Z,4.93
2018-01-23T10:51:50.133Z,5.60
2018-01-23T10:54:19.087Z,5.27
2018-01-23T10:56:48.457Z,5.20
2018-01-23T10:59:23.685Z,5.53
2018-01-23T11:01:54.882Z,5.73
2018-01-23T11:04:23.369Z,5.17
2018-01-23T11:06:52.530Z,5.70
2018-01-23T11:09:20.895Z,5.90
2018-01-23T11:11:50.003Z,5.80
2018-01-23T11:14:22.287Z,5.57
2018-01-23T11:16:54.069Z,5.77
2018-01-23T11:19:22.735Z,5.50
2018-01-23T11:21:52.690Z,5.77
2018-01-23T11:24:20.997Z,5.70
2018-01-23T11:26:49.342Z,6.27
2018-01-23T11:29:19.093Z,6.13
2018-01-23T11:31:50.277Z,5.30
2018-01-23T11:34:18.604Z,6.20
2018-01-23T11:36:47.026Z,5.97
2018-01-23T11:39:18.122Z,6.03
2018-01-23T11:41:47.330Z,5.53
2018-01-23T11:44:15.717Z,5.80
2018-01-23T11:46:46.466Z,4.70
2018-01-23T11:49:17.272Z,5.30
2018-01-23T11:51:46.665Z,5.27
2018-01-23T11:54:15.695Z,4.93
2018-01-23T11:56:44.895Z,4.53
2018-01-23T11:59:13.212Z,5.23
2018-01-23T12:01:44.694Z,5.70
2018-01-23T12:04:18.827Z,4.60
2018-01-23T12:06:48.028Z,4.83
2018-01-23T12:09:18.380Z,3.90
2018-01-23T12:11:47.234Z,4.10
2018-01-23T12:14:16.037Z,4.07
2018-01-23T12:16:45.315Z,3.50
2018-01-23T12:19:18.052Z,3.00
2018-01-23T12:21:53.138Z,2.90
2018-01-23T12:24:25.381Z,2.70
2018-01-23T12:26:54.418Z,2.70
2018-01-23T12:29:23.375Z,2.63
2018-01-23T12:31:52.326Z,2.73
2018-01-23T12:34:23.230Z,2.53
2018-01-23T12:36:52.412Z,2.37
2018-01-23T12:39:24.267Z,2.47
2018-01-23T12:41:59.407Z,2.70
2018-01-23T12:44:28.649Z,2.90
2018-01-23T12:46:58.105Z,2.87
2018-01-23T12:49:27.423Z,2.63
2018-01-23T12:51:55.743Z,2.83
2018-01-23T12:54:27.561Z,3.27
2018-01-23T12:56:57.862Z,3.30
2018-01-23T12:59:27.136Z,2.83
2018-01-23T13:01:55.581Z,2.90
2018-01-23T13:04:25.188Z,2.90
2018-01-23T13:06:53.526Z,3.17
2018-01-23T13:09:22.646Z,3.40
2018-01-23T13:11:54.422Z,3.10
2018-01-23T13:14:22.933Z,2.63
2018-01-23T13:16:52.649Z,2.70
2018-01-23T13:19:21.201Z,3.50
2018-01-23T13:21:50.310Z,3.20
2018-01-23T13:24:18.643Z,3.50
2018-01-23T13:26:48.095Z,3.30
2018-01-23T13:29:16.457Z,3.30
2018-01-23T13:31:44.783Z,3.30
2018-01-23T13:34:13.610Z,3.00
2018-01-23T13:36:42.956Z,3.10
2018-01-23T13:39:11.317Z,2.90
2018-01-23T13:41:40.384Z,2.87
2018-01-23T13:44:08.675Z,2.87
2018-01-23T13:46:37.008Z,2.53
2018-01-23T13:49:05.549Z,2.80
2018-01-23T13:51:34.442Z,3.27
2018-01-23T13:54:02.883Z,2.30
2018-01-23T13:56:31.731Z,2.70
2018-01-23T13:59:00.039Z,2.80
2018-01-23T14:01:28.349Z,2.80
2018-01-23T14:03:58.696Z,2.87
2018-01-23T14:06:27.663Z,2.87
2018-01-23T14:08:56.643Z,2.40
2018-01-23T14:11:26.278Z,3.00
2018-01-23T14:13:55.046Z,2.50
2018-01-23T14:16:24.583Z,2.60
2018-01-23T14:18:54.769Z,2.43
2018-01-23T14:21:23.622Z,2.40
2018-01-23T14:23:52.167Z,2.63
2018-01-23T14:26:20.541Z,2.60
2018-01-23T14:28:48.826Z,2.30
2018-01-23T14:31:18.389Z,2.77
2018-01-23T14:33:47.498Z,2.50
2018-01-23T14:36:18.307Z,2.60
2018-01-23T14:38:46.621Z,2.80
2018-01-23T14:41:15.728Z,2.47
2018-01-23T14:43:45.155Z,2.53
2018-01-23T14:46:18.528Z,2.80
2018-01-23T14:48:47.143Z,2.70
2018-01-23T14:51:16.707Z,5.23
2018-01-23T14:53:45.632Z,3.33
2018-01-23T14:56:14.416Z,3.23
2018-01-23T14:58:44.407Z,3.50
2018-01-23T15:01:15.709Z,3.37
2018-01-23T15:03:44.029Z,3.33
2018-01-23T15:06:14.871Z,3.60
2018-01-23T15:08:43.866Z,3.80
2018-01-23T15:11:13.895Z,3.73
2018-01-23T15:13:42.986Z,3.40
2018-01-23T15:16:13.934Z,3.07
2018-01-23T15:18:47.038Z,3.20
2018-01-23T15:21:15.344Z,2.87
2018-01-23T15:23:46.557Z,3.40
2018-01-23T15:26:15.808Z,3.13
2018-01-23T15:28:44.903Z,3.37
2018-01-23T15:31:14.558Z,2.93
2018-01-23T15:33:45.451Z,3.10
2018-01-23T15:36:15.325Z,3.37
2018-01-23T15:38:44.588Z,3.33
2018-01-23T15:41:12.887Z,2.90
2018-01-23T15:43:41.262Z,3.13
2018-01-23T15:46:10.340Z,3.57
2018-01-23T15:48:40.401Z,3.20
2018-01-23T15:51:09.537Z,3.00
2018-01-23T15:53:38.513Z,3.23
2018-01-23T15:56:06.795Z,3.40
2018-01-23T15:58:35.125Z,3.20
2018-01-23T16:01:06.196Z,3.47
2018-01-23T16:03:35.441Z,3.53
2018-01-23T16:06:05.137Z,3.37
2018-01-23T16:08:34.840Z,3.10
2018-01-23T16:11:03.380Z,3.50
2018-01-23T16:13:33.547Z,3.27
2018-01-23T16:16:03.249Z,3.17
2018-01-23T16:18:35.237Z,3.27
2018-01-23T16:21:04.638Z,3.47
2018-01-23T16:23:32.936Z,3.20
2018-01-23T16:26:02.209Z,3.30
2018-01-23T16:28:32.007Z,2.97
2018-01-23T16:31:02.827Z,2.77
2018-01-23T16:33:33.538Z,3.60
2018-01-23T16:36:04.868Z,3.00
2018-01-23T16:38:34.954Z,2.73
2018-01-23T16:41:03.777Z,2.43
2018-01-23T16:43:33.983Z,2.37
2018-01-23T16:46:02.872Z,2.57
2018-01-23T16:48:35.192Z,2.87
2018-01-23T16:51:05.083Z,3.20
2018-01-23T16:53:35.492Z,2.40
2018-01-23T16:56:07.748Z,2.00
2018-01-23T16:58:36.430Z,2.27
2018-01-23T17:01:06.692Z,2.10
2018-01-23T17:03:36.222Z,2.23
2018-01-23T17:06:05.707Z,2.23
2018-01-23T17:08:34.843Z,2.60
2018-01-23T17:11:03.832Z,2.43
2018-01-23T17:13:49.621Z,2.80
2018-01-23T17:16:18.995Z,2.40
2018-01-23T17:18:51.356Z,2.70
2018-01-23T17:21:19.678Z,2.40
2018-01-23T17:23:48.843Z,3.00
2018-01-23T17:26:17.446Z,2.80
2018-01-23T17:28:48.849Z,2.93
2018-01-23T17:31:17.377Z,3.20
2018-01-23T17:33:47.694Z,2.67
2018-01-23T17:36:15.992Z,3.00
2018-01-23T17:38:46.316Z,2.60
2018-01-23T17:41:15.483Z,2.73
2018-01-23T17:44:04.894Z,2.90
2018-01-23T17:46:33.627Z,3.13
2018-01-23T17:49:02.223Z,3.47
2018-01-23T17:51:33.275Z,3.00
2018-01-23T17:54:01.656Z,3.23
2018-01-23T17:56:31.944Z,3.60
2018-01-23T17:59:16.139Z,3.73
2018-01-23T18:01:45.327Z,3.83
2018-01-23T18:04:13.973Z,4.03
2018-01-23T18:06:42.504Z,3.77
2018-01-23T18:09:11.336Z,4.40
2018-01-23T18:11:40.833Z,4.10
2018-01-23T18:14:10.517Z,3.93
2018-01-23T18:16:38.914Z,3.90
2018-01-23T18:19:08.385Z,4.13
2018-01-23T18:21:36.696Z,4.17
2018-01-23T18:27:05.464Z,4.53
2018-01-23T18:29:37.715Z,4.40
2018-01-23T18:32:07.142Z,3.90
2018-01-23T18:34:36.820Z,4.47
2018-01-23T18:37:05.515Z,4.30
2018-01-23T18:39:35.678Z,4.40
2018-01-23T18:42:08.239Z,4.10
2018-01-23T18:44:45.057Z,3.97
2018-01-23T18:47:15.906Z,3.93
2018-01-23T18:49:44.190Z,3.20
2018-01-23T18:52:12.516Z,4.00
2018-01-23T18:54:40.984Z,3.53
2018-01-23T18:57:15.185Z,3.30
2018-01-23T18:59:48.954Z,3.27
2018-01-23T19:02:18.628Z,3.43
2018-01-23T19:04:48.664Z,3.17
2018-01-23T19:07:22.719Z,3.10
2018-01-23T19:09:53.003Z,3.33
2018-01-23T19:12:21.336Z,3.30
2018-01-23T19:14:52.942Z,3.63
2018-01-23T19:17:21.362Z,3.53
2018-01-23T19:19:54.050Z,3.17
2018-01-23T19:22:29.778Z,3.40
2018-01-23T19:24:59.435Z,2.90
2018-01-23T19:27:28.021Z,3.23
2018-01-23T19:29:56.372Z,3.20
2018-01-23T19:32:47.762Z,3.20
2018-01-23T19:35:18.648Z,3.30
2018-01-23T19:37:46.939Z,3.10
2018-01-23T19:40:17.509Z,2.83
2018-01-23T19:42:46.351Z,3.47
2018-01-23T19:45:16.700Z,3.20
2018-01-23T19:47:47.995Z,3.23
2018-01-23T19:50:17.429Z,2.70
2018-01-23T19:52:46.939Z,3.20
2018-01-23T19:55:16.447Z,3.20
2018-01-23T19:57:45.518Z,3.10
2018-01-23T20:00:17.330Z,2.67
2018-01-23T20:02:45.656Z,3.37
2018-01-23T20:05:17.688Z,3.33
2018-01-23T20:07:48.024Z,3.20
2018-01-23T20:10:17.912Z,3.90
2018-01-23T20:12:46.284Z,3.30
2018-01-23T20:15:14.578Z,3.27
2018-01-23T20:17:44.815Z,3.40
2018-01-23T20:20:13.932Z,3.33
2018-01-23T20:22:43.545Z,3.43
2018-01-23T20:25:12.424Z,3.00
2018-01-23T20:27:44.708Z,3.10
2018-01-23T20:30:13.906Z,3.33
2018-01-23T20:32:45.353Z,3.50
2018-01-23T20:35:16.556Z,3.20
2018-01-23T20:37:50.106Z,3.30
2018-01-23T20:40:18.678Z,3.37
2018-01-23T20:42:47.576Z,2.90
2018-01-23T20:45:16.239Z,3.50
2018-01-23T20:47:44.565Z,3.37
2018-01-23T20:50:20.224Z,3.80
2018-01-23T20:52:53.074Z,4.00
2018-01-23T20:55:24.947Z,4.13
2018-01-23T20:57:56.876Z,4.10
2018-01-23T21:00:25.263Z,3.70
2018-01-23T21:02:57.903Z,4.20
2018-01-23T21:05:28.514Z,3.80
2018-01-23T21:07:57.632Z,3.40
2018-01-23T21:10:26.048Z,3.90
2018-01-23T21:12:55.568Z,3.40
2018-01-23T21:15:25.107Z,3.23
2018-01-23T21:17:57.033Z,3.70
2018-01-23T21:20:26.544Z,3.70
2018-01-23T21:22:55.592Z,3.53
2018-01-23T21:25:29.632Z,3.70
2018-01-23T21:27:59.372Z,4.30
2018-01-23T21:30:31.309Z,3.40
2018-01-23T21:33:02.740Z,4.10
2018-01-23T21:35:32.783Z,4.20
2018-01-23T21:38:07.135Z,4.17
2018-01-23T21:40:36.855Z,4.27
2018-01-23T21:43:05.689Z,3.73
2018-01-23T21:45:34.207Z,3.57
2018-01-23T21:48:04.742Z,3.60
2018-01-23T21:50:35.545Z,5.13
2018-01-23T21:53:06.483Z,3.93
2018-01-23T21:55:34.794Z,3.83
2018-01-23T21:58:03.878Z,4.20
2018-01-23T22:00:33.463Z,4.60
2018-01-23T22:03:36.386Z,4.60
2018-01-23T22:06:38.809Z,4.50
2018-01-23T22:09:39.968Z,4.13
2018-01-23T22:12:39.210Z,4.87
2018-01-23T22:15:42.578Z,4.07
2018-01-23T22:18:43.370Z,4.87
2018-01-23T22:21:43.463Z,4.60
2018-01-23T22:24:42.607Z,4.40
2018-01-23T22:27:42.525Z,5.00
2018-01-23T22:30:43.088Z,4.70
2018-01-23T22:33:49.226Z,5.50
2018-01-23T22:36:53.322Z,4.80
2018-01-23T22:39:52.149Z,5.03
2018-01-23T22:42:51.187Z,5.57
2018-01-23T22:45:51.139Z,5.03
2018-01-23T22:48:57.345Z,5.40
2018-01-23T22:51:57.622Z,5.00
2018-01-23T22:54:56.048Z,4.40
2018-01-23T22:57:55.373Z,4.90
2018-01-23T23:00:54.345Z,5.30
2018-01-23T23:04:06.006Z,5.17
2018-01-23T23:07:06.337Z,5.30
2018-01-23T23:10:08.723Z,5.73
2018-01-23T23:13:09.178Z,5.10
2018-01-23T23:16:09.405Z,6.30
2018-01-23T23:19:18.592Z,4.60
2018-01-23T23:22:21.080Z,6.20
2018-01-23T23:25:20.605Z,5.87
2018-01-23T23:28:19.248Z,5.07
2018-01-23T23:31:18.372Z,5.13
2018-01-23T23:34:17.280Z,5.77
2018-01-23T23:37:18.343Z,4.97
2018-01-23T23:40:18.720Z,4.83
2018-01-23T23:43:17.399Z,5.87
2018-01-23T23:46:16.074Z,5.50
2018-01-23T23:49:15.802Z,5.83
